Current Observation

FTSO31 AGGG 292325
TAF AGGH 292325Z 3000/3024 VRB03KT 9999 –SHDZ FEW018 SCT100
PROB40 INTER 3003/3006 5000 TSSH SCT017 FEW018CB BKN029
T 31 32 29 26 Q 1011 1009 1008 1010=

TAF AGGM 292325Z 3000/3024 VRB03KT 9999 –SHRA FEW018 SCT030 BKN100
FM300000 07010KT 9999 –SHDZ SCT019 SCT030  
PROB40 INTER 3000/3006 4000 TSSH SCT017 FEW018CB BKN029
Q 1012 1010 1009 1011=

TAF AGGN 292325Z 3000/3024 VRB03KT 9999 –SHRA FEW017 SCT030 BKN100
FM300000 07010KT 9999 –SHDZ SCT019 SCT030
PROB40 INTER 3000/3006 4000 TSSH SCT017 FEW018CB BKN029
Q 1012 1010 1009 1011=

TAF AGGC 292325Z 3000/3024 VRB03KT 9999 –SHRA FEW017 SCT030 BKN100
FM300000 18010KT 9999 –SHDZ SCT019 SCT030
INTER 3000/3006 4000 TSSH SCT014 FEW015CB BKN028
Q 1012 1010 1009 1011=

TAF AGGA 292325Z 3000/3024 VRB03KT 9999 –SHRA FEW018 SCT030 BKN100
FM300000 12008KT 9999 –SHDZ SCT019 SCT030
INTER 3002/3006 4000 TSSH SCT017 FEW018CB BKN029
Q 1011 1009 1008 1010=
 
TAF AGGK 292325Z 3000/3024 VRB03KT –SHDZ  9999 FEW018
FM300000 07010KT 9999  SCT019 SCT030 
Q 1011 1009 1008 1010=
                       
TAF AGGL 292325Z 3000/3024 VRB03KT 9999 –SHRA FEW018 SCT030
FM300000 08010KT 9999 SCT019 SCT030
PROB40 INTER 3002/3006 3000 TSSH SCT017 FEW018CB BKN029
Q 1012 1010 1009 1011=

TAF AGGR 292325Z 3000/3024 VRB03KT 9999 FEW018
FM300000 08010KT 9999 –SHDZ SCT019 SCT030 
Q 1012 1010 1009 1011=

 

Last modified on Thursday, 30 March 2017 10:28

Weather Outlook

Support and Docs

Modern Design
Go to top